KPOC/POC METAR and TAF weather

Enter ICAO airport designator
Station Type Date Time Source
KPOC METAR 2020/07/13 23:47 UTC NOAA

KPOC 132347Z 21010G15KT 10SM CLR 31/15 A2989 RMK LAST


Station Type Date Time Source
KPOC Decoded METAR 2020/07/13 23:47 UTC NOAA

La Verne / Brackett, CA, United States (KPOC) 34-06N 117-47W
Jul 13, 2020 - 07:47 PM EDT / 2020.07.13 2347 UTC
Wind: from the SSW (210 degrees) at 12 MPH (10 KT) gusting to 17 MPH (15 KT):0
Visibility: 10 mile(s):0
Sky conditions: clear
Temperature: 87 F (31 C)
Dew Point: 59 F (15 C)
Relative Humidity: 37%
Pressure (altimeter): 29.89 in. Hg (1012 hPa)
ob: KPOC 132347Z 21010G15KT 10SM CLR 31/15 A2989 RMK LAST
cycle: 0

Station Type Date Time Source
KPOC TAF UTC NOAA

Error!

Example: see airport list